Time;durP1;ratioP1;P1;durP2;ratioP2;P2;SDS_P1;SDS_P2;PMS_P1;PMS_P2;Temp;Humidity;BMP_temperature;BMP_pressure;BME280_temperature;BME280_humidity;BME280_pressure;Samples;Min_cycle;Max_cycle;Signal;HPM_P1;HPM_P2
2024/03/25 00:00:41;;;;;;;0.20;0.20;;;;;;;;;;4886947;29;20294;-88
2024/03/25 00:03:15;;;;;;;0.97;0.67;;;;;;;;;;4871354;29;20244;-90
2024/03/25 00:05:41;;;;;;;0.20;0.20;;;;;;;;;;4887437;29;20223;-88
2024/03/25 00:08:08;;;;;;;0.20;0.20;;;;;;;;;;4886663;29;20214;-90
2024/03/25 00:10:34;;;;;;;0.30;0.20;;;;;;;;;;4886791;29;20566;-92
2024/03/25 00:13:00;;;;;;;0.30;0.30;;;;;;;;;;4886485;29;20313;-89
2024/03/25 00:15:26;;;;;;;0.20;0.20;;;;;;;;;;4917769;29;20742;-89
2024/03/25 00:17:52;;;;;;;0.30;0.30;;;;;;;;;;4886276;29;20206;-89
2024/03/25 00:20:18;;;;;;;1.23;1.13;;;;;;;;;;4917886;29;20270;-87
2024/03/25 00:22:45;;;;;;;0.60;0.60;;;;;;;;;;4889137;29;20218;-85
2024/03/25 00:25:11;;;;;;;0.30;0.30;;;;;;;;;;4918369;29;20202;-86
2024/03/25 00:27:37;;;;;;;0.20;0.20;;;;;;;;;;4871700;29;20203;-88
2024/03/25 00:30:04;;;;;;;0.40;0.40;;;;;;;;;;4916427;29;20293;-85
2024/03/25 00:32:31;;;;;;;0.20;0.20;;;;;;;;;;4923950;29;20205;-86
2024/03/25 00:34:57;;;;;;;0.87;0.87;;;;;;;;;;4924390;29;20202;-86
2024/03/25 00:37:24;;;;;;;0.40;0.40;;;;;;;;;;4939866;29;20245;-88
2024/03/25 00:39:50;;;;;;;0.30;0.30;;;;;;;;;;4937842;29;20237;-87
2024/03/25 00:42:16;;;;;;;0.10;0.10;;;;;;;;;;4922751;29;20289;-88
2024/03/25 00:44:42;;;;;;;0.20;0.20;;;;;;;;;;4921999;29;20213;-86
2024/03/25 00:47:08;;;;;;;2.97;0.90;;;;;;;;;;4921210;29;20202;-87
2024/03/25 00:49:34;;;;;;;4.00;0.50;;;;;;;;;;4922054;29;20241;-88
2024/03/25 00:52:00;;;;;;;0.13;0.13;;;;;;;;;;4922095;29;20308;-88
2024/03/25 00:54:27;;;;;;;0.57;0.57;;;;;;;;;;4922375;29;20297;-88
2024/03/25 00:56:53;;;;;;;0.30;0.20;;;;;;;;;;4924515;29;20204;-89
2024/03/25 00:59:19;;;;;;;1.40;1.40;;;;;;;;;;4921737;29;20706;-88
2024/03/25 01:01:45;;;;;;;0.30;0.30;;;;;;;;;;4922085;29;20666;-86
2024/03/25 01:04:11;;;;;;;1.00;0.90;;;;;;;;;;4922490;29;20198;-89
2024/03/25 01:06:38;;;;;;;0.20;0.20;;;;;;;;;;4922064;29;20214;-89
2024/03/25 01:09:04;;;;;;;1.93;1.80;;;;;;;;;;4938197;29;20206;-88
2024/03/25 01:11:30;;;;;;;0.57;0.57;;;;;;;;;;4937852;29;20209;-88
2024/03/25 01:13:57;;;;;;;0.20;0.20;;;;;;;;;;4923146;29;20273;-91
2024/03/25 01:16:23;;;;;;;0.33;0.33;;;;;;;;;;4937671;29;20201;-91
2024/03/25 01:18:49;;;;;;;0.20;0.20;;;;;;;;;;4924081;29;20230;-88
2024/03/25 01:21:15;;;;;;;1.90;1.80;;;;;;;;;;4939124;29;20202;-87
2024/03/25 01:23:41;;;;;;;3.40;1.80;;;;;;;;;;4938309;29;20737;-89
2024/03/25 01:26:07;;;;;;;2.57;0.73;;;;;;;;;;4922615;29;20297;-88
2024/03/25 01:28:34;;;;;;;0.43;0.43;;;;;;;;;;4922166;29;20250;-88
2024/03/25 01:31:00;;;;;;;0.20;0.20;;;;;;;;;;4922675;29;20202;-88
2024/03/25 01:33:26;;;;;;;0.37;0.37;;;;;;;;;;4937124;29;20202;-88
2024/03/25 01:35:55;;;;;;;2.43;0.97;;;;;;;;;;4922170;29;20257;-90
2024/03/25 01:38:21;;;;;;;2.63;0.67;;;;;;;;;;4921307;29;20241;-85
2024/03/25 01:40:48;;;;;;;0.20;0.20;;;;;;;;;;4920734;29;20202;-88
2024/03/25 01:43:14;;;;;;;0.20;0.20;;;;;;;;;;4936488;29;20631;-87
2024/03/25 01:45:42;;;;;;;0.20;0.20;;;;;;;;;;4920350;29;20234;-87
2024/03/25 01:48:12;;;;;;;0.50;0.50;;;;;;;;;;4935953;29;20206;-88
2024/03/25 01:50:44;;;;;;;0.70;0.70;;;;;;;;;;4920790;29;20613;-88
2024/03/25 01:53:11;;;;;;;1.00;0.90;;;;;;;;;;4920173;29;20213;-87
2024/03/25 01:55:38;;;;;;;9.43;0.97;;;;;;;;;;4920261;29;20257;-87
2024/03/25 01:58:06;;;;;;;0.40;0.40;;;;;;;;;;4904517;29;20205;-87
2024/03/25 02:00:32;;;;;;;1.83;0.90;;;;;;;;;;4935579;29;20316;-89
2024/03/25 02:02:58;;;;;;;12.83;0.63;;;;;;;;;;4936228;29;20206;-89
2024/03/25 02:05:27;;;;;;;0.20;0.20;;;;;;;;;;4919873;29;20294;-87
2024/03/25 02:07:53;;;;;;;2.50;0.57;;;;;;;;;;4919648;29;20210;-88
2024/03/25 02:10:20;;;;;;;0.37;0.37;;;;;;;;;;4887585;29;20214;-86
2024/03/25 02:12:47;;;;;;;0.57;0.57;;;;;;;;;;4919354;29;20247;-89
2024/03/25 02:15:14;;;;;;;0.27;0.27;;;;;;;;;;4919346;29;20670;-86
2024/03/25 02:17:40;;;;;;;0.40;0.40;;;;;;;;;;4918986;29;20213;-86
2024/03/25 02:20:09;;;;;;;2.00;1.27;;;;;;;;;;4918283;29;20316;-88
2024/03/25 02:22:36;;;;;;;0.30;0.30;;;;;;;;;;4918531;29;20273;-87
2024/03/25 02:25:05;;;;;;;0.30;0.30;;;;;;;;;;4918253;29;20210;-86
2024/03/25 02:27:32;;;;;;;0.37;0.37;;;;;;;;;;4921642;29;20205;-89
2024/03/25 02:30:05;;;;;;;0.30;0.30;;;;;;;;;;4922010;29;20202;-84
2024/03/25 02:32:32;;;;;;;0.20;0.20;;;;;;;;;;4922678;29;20210;-88
2024/03/25 02:34:58;;;;;;;0.10;0.10;;;;;;;;;;4922328;29;20714;-86
2024/03/25 02:37:25;;;;;;;0.20;0.20;;;;;;;;;;4923096;29;20214;-87
2024/03/25 02:39:51;;;;;;;2.90;0.70;;;;;;;;;;4939243;29;20225;-86
2024/03/25 02:42:18;;;;;;;2.00;0.80;;;;;;;;;;4923612;29;20205;-88
2024/03/25 02:44:44;;;;;;;0.67;0.67;;;;;;;;;;4939427;29;20229;-89
2024/03/25 02:47:11;;;;;;;1.67;1.17;;;;;;;;;;4938878;29;20253;-84
2024/03/25 02:49:37;;;;;;;0.20;0.20;;;;;;;;;;4923508;29;20205;-87
2024/03/25 02:52:03;;;;;;;2.10;1.23;;;;;;;;;;4923652;29;20206;-85
2024/03/25 02:54:30;;;;;;;0.40;0.40;;;;;;;;;;4922848;29;20285;-86
2024/03/25 02:56:56;;;;;;;0.70;0.70;;;;;;;;;;4938505;29;20218;-87
2024/03/25 02:59:22;;;;;;;3.10;0.77;;;;;;;;;;4922312;29;20218;-84
2024/03/25 03:01:48;;;;;;;0.20;0.20;;;;;;;;;;4923443;29;20206;-87
2024/03/25 03:04:14;;;;;;;0.43;0.43;;;;;;;;;;4923178;29;20209;-86
2024/03/25 03:06:40;;;;;;;3.00;1.10;;;;;;;;;;4923579;29;20639;-83
2024/03/25 03:09:06;;;;;;;0.53;0.53;;;;;;;;;;4923157;29;20659;-88
2024/03/25 03:11:33;;;;;;;1.40;0.50;;;;;;;;;;4923776;29;20210;-87
2024/03/25 03:13:59;;;;;;;0.50;0.50;;;;;;;;;;4908320;29;20285;-88
2024/03/25 03:16:25;;;;;;;2.30;1.87;;;;;;;;;;4923936;29;20206;-89
2024/03/25 03:18:51;;;;;;;0.67;0.67;;;;;;;;;;4907869;29;20230;-88
2024/03/25 03:21:17;;;;;;;7.27;1.43;;;;;;;;;;4923057;29;20222;-85
2024/03/25 03:23:43;;;;;;;0.20;0.20;;;;;;;;;;4923453;29;20206;-88
2024/03/25 03:26:12;;;;;;;9.97;0.83;;;;;;;;;;4922851;29;20285;-88
2024/03/25 03:28:38;;;;;;;3.80;0.37;;;;;;;;;;4922821;29;20623;-87
2024/03/25 03:31:06;;;;;;;0.47;0.43;;;;;;;;;;4902726;29;20726;-87
2024/03/25 03:33:32;;;;;;;7.53;1.20;;;;;;;;;;4887557;29;20206;-85
2024/03/25 03:35:58;;;;;;;0.73;0.73;;;;;;;;;;4886481;29;20214;-86
2024/03/25 03:38:24;;;;;;;0.40;0.40;;;;;;;;;;4901843;29;20302;-88
2024/03/25 03:41:00;;;;;;;0.40;0.40;;;;;;;;;;4918669;29;20207;-88
2024/03/25 03:43:26;;;;;;;0.83;0.53;;;;;;;;;;4887163;29;20675;-88
2024/03/25 03:45:53;;;;;;;0.67;0.63;;;;;;;;;;4887100;29;20210;-83
2024/03/25 03:48:19;;;;;;;0.70;0.70;;;;;;;;;;4901899;29;20211;-89
2024/03/25 03:50:46;;;;;;;0.20;0.20;;;;;;;;;;4902089;29;20202;-86
2024/03/25 03:53:12;;;;;;;2.60;0.50;;;;;;;;;;4901969;29;20207;-88
2024/03/25 03:55:38;;;;;;;0.57;0.57;;;;;;;;;;4902657;29;20254;-87
2024/03/25 03:58:04;;;;;;;0.30;0.30;;;;;;;;;;4918102;29;20210;-88
2024/03/25 04:00:34;;;;;;;0.30;0.30;;;;;;;;;;4886692;29;20245;-88
2024/03/25 04:03:00;;;;;;;0.37;0.37;;;;;;;;;;4902050;29;20754;-88
2024/03/25 04:05:29;;;;;;;0.47;0.47;;;;;;;;;;4886745;29;20201;-87
2024/03/25 04:07:55;;;;;;;0.20;0.20;;;;;;;;;;4893381;29;20213;-86
2024/03/25 04:10:21;;;;;;;0.20;0.20;;;;;;;;;;4938324;29;20206;-87
2024/03/25 04:12:47;;;;;;;12.10;1.03;;;;;;;;;;4922421;29;20337;-86
2024/03/25 04:15:17;;;;;;;0.10;0.10;;;;;;;;;;4922456;29;20202;-87
2024/03/25 04:17:46;;;;;;;0.40;0.40;;;;;;;;;;4922222;29;20206;-89
2024/03/25 04:20:13;;;;;;;1.57;1.43;;;;;;;;;;4921881;29;20608;-86
2024/03/25 04:22:41;;;;;;;0.77;0.77;;;;;;;;;;4922018;29;20209;-89
2024/03/25 04:25:08;;;;;;;0.20;0.20;;;;;;;;;;4938875;29;20204;-89
2024/03/25 04:27:34;;;;;;;0.43;0.37;;;;;;;;;;4922540;29;20224;-88
2024/03/25 04:30:00;;;;;;;0.20;0.20;;;;;;;;;;4906645;29;20301;-89
2024/03/25 04:32:26;;;;;;;0.37;0.37;;;;;;;;;;4937058;29;20213;-88
2024/03/25 04:34:53;;;;;;;0.43;0.43;;;;;;;;;;4921673;29;20218;-86
2024/03/25 04:37:19;;;;;;;1.40;1.30;;;;;;;;;;4921497;29;20242;-85
2024/03/25 04:39:45;;;;;;;1.50;1.03;;;;;;;;;;4920965;29;20221;-81
2024/03/25 04:42:11;;;;;;;0.40;0.40;;;;;;;;;;4922078;29;20206;-88
2024/03/25 04:44:37;;;;;;;0.80;0.80;;;;;;;;;;4937392;29;20204;-88
2024/03/25 04:47:03;;;;;;;0.27;0.27;;;;;;;;;;4922181;29;20221;-88
2024/03/25 04:49:29;;;;;;;0.60;0.50;;;;;;;;;;4921208;29;20380;-86
2024/03/25 04:51:55;;;;;;;0.33;0.30;;;;;;;;;;4905537;29;20208;-87
2024/03/25 04:54:22;;;;;;;0.50;0.50;;;;;;;;;;4922090;29;20198;-87
2024/03/25 04:56:48;;;;;;;0.20;0.20;;;;;;;;;;4921612;29;20668;-83
2024/03/25 04:59:14;;;;;;;0.30;0.30;;;;;;;;;;4921437;29;20241;-86
2024/03/25 05:01:40;;;;;;;1.60;0.70;;;;;;;;;;4921208;29;20273;-87
2024/03/25 05:04:09;;;;;;;0.30;0.30;;;;;;;;;;4921044;29;20252;-87
2024/03/25 05:06:35;;;;;;;0.33;0.33;;;;;;;;;;4906075;29;20285;-88
2024/03/25 05:09:02;;;;;;;0.40;0.40;;;;;;;;;;4936841;29;20289;-87
2024/03/25 05:11:28;;;;;;;0.70;0.70;;;;;;;;;;4936871;29;20662;-85
2024/03/25 05:13:54;;;;;;;1.80;1.70;;;;;;;;;;4921792;29;20242;-87
2024/03/25 05:16:20;;;;;;;3.40;1.27;;;;;;;;;;4921481;29;20261;-87
2024/03/25 05:18:49;;;;;;;0.40;0.40;;;;;;;;;;4936779;29;20280;-86
2024/03/25 05:21:15;;;;;;;5.53;0.70;;;;;;;;;;4935785;29;20205;-87
2024/03/25 05:23:42;;;;;;;0.30;0.30;;;;;;;;;;4919976;29;20221;-86
2024/03/25 05:26:08;;;;;;;0.17;0.17;;;;;;;;;;4936002;29;20254;-88
2024/03/25 05:28:37;;;;;;;0.50;0.50;;;;;;;;;;4921166;29;20223;-87
2024/03/25 05:31:07;;;;;;;0.40;0.40;;;;;;;;;;4936872;29;20257;-88
2024/03/25 05:33:33;;;;;;;5.50;1.53;;;;;;;;;;4937272;29;20198;-89
2024/03/25 05:36:00;;;;;;;0.30;0.30;;;;;;;;;;4921015;29;20202;-87
2024/03/25 05:38:26;;;;;;;3.40;0.60;;;;;;;;;;4921246;29;20202;-88
2024/03/25 05:40:53;;;;;;;1.37;1.37;;;;;;;;;;4904729;29;20217;-87
2024/03/25 05:43:20;;;;;;;0.20;0.20;;;;;;;;;;4920302;29;20213;-91
2024/03/25 05:45:55;;;;;;;0.30;0.30;;;;;;;;;;4920631;29;20277;-88
2024/03/25 05:48:22;;;;;;;1.30;0.70;;;;;;;;;;4920851;29;20676;-92
2024/03/25 05:50:59;;;;;;;0.30;0.30;;;;;;;;;;4921061;29;20217;-88
2024/03/25 05:53:26;;;;;;;0.20;0.20;;;;;;;;;;4920905;29;20212;-89
2024/03/25 05:55:52;;;;;;;0.20;0.20;;;;;;;;;;4920983;29;20201;-87
2024/03/25 05:58:18;;;;;;;1.63;0.37;;;;;;;;;;4920134;29;20197;-88
2024/03/25 06:00:46;;;;;;;0.20;0.20;;;;;;;;;;4919574;29;20237;-89
2024/03/25 06:03:15;;;;;;;0.10;0.10;;;;;;;;;;4920860;29;20288;-87
2024/03/25 06:05:41;;;;;;;0.20;0.20;;;;;;;;;;4920664;29;20206;-87
2024/03/25 06:08:15;;;;;;;0.30;0.30;;;;;;;;;;4920555;29;20201;-86
2024/03/25 06:10:42;;;;;;;16.67;0.87;;;;;;;;;;4921059;29;20213;-86
2024/03/25 06:13:08;;;;;;;1.13;1.03;;;;;;;;;;4920611;29;20210;-86
2024/03/25 06:15:34;;;;;;;1.27;0.60;;;;;;;;;;4920167;29;20201;-88
2024/03/25 06:18:00;;;;;;;0.30;0.30;;;;;;;;;;4920186;29;20214;-91
2024/03/25 06:20:26;;;;;;;0.60;0.60;;;;;;;;;;4919587;29;20230;-85
2024/03/25 06:22:53;;;;;;;3.73;0.87;;;;;;;;;;4920036;29;20231;-87
2024/03/25 06:25:19;;;;;;;0.50;0.50;;;;;;;;;;4919964;29;20198;-86
2024/03/25 06:27:45;;;;;;;0.30;0.30;;;;;;;;;;4920494;29;20281;-85
2024/03/25 06:35:45;;;;;;;0.20;0.20;;;;;;;;;;4935274;29;20202;-84
2024/03/25 06:38:11;;;;;;;8.03;0.80;;;;;;;;;;4919111;29;20321;-83
2024/03/25 06:40:37;;;;;;;0.40;0.40;;;;;;;;;;4919301;29;20229;-91
2024/03/25 06:43:04;;;;;;;2.93;0.80;;;;;;;;;;4904445;29;20635;-84
2024/03/25 06:45:30;;;;;;;1.10;1.10;;;;;;;;;;4919522;29;20726;-86
2024/03/25 06:47:57;;;;;;;0.20;0.20;;;;;;;;;;4920170;29;20206;-88
2024/03/25 06:50:23;;;;;;;0.80;0.50;;;;;;;;;;4905219;29;20257;-88
2024/03/25 06:52:49;;;;;;;0.60;0.60;;;;;;;;;;4920540;29;20238;-91
2024/03/25 06:55:15;;;;;;;0.30;0.30;;;;;;;;;;4903995;29;20246;-87
2024/03/25 06:57:42;;;;;;;0.30;0.30;;;;;;;;;;4920008;29;20284;-87
2024/03/25 07:00:13;;;;;;;0.60;0.60;;;;;;;;;;4922216;29;20685;-88
2024/03/25 07:02:41;;;;;;;0.80;0.80;;;;;;;;;;4919810;29;20194;-88
2024/03/25 07:05:07;;;;;;;0.30;0.30;;;;;;;;;;4925038;29;20202;-89
2024/03/25 07:07:42;;;;;;;8.23;0.43;;;;;;;;;;4935276;29;20189;-82
2024/03/25 07:10:12;;;;;;;0.40;0.30;;;;;;;;;;4919331;29;20210;-90
2024/03/25 07:12:39;;;;;;;0.40;0.40;;;;;;;;;;4919873;29;20202;-87
2024/03/25 07:15:05;;;;;;;7.83;1.33;;;;;;;;;;4922999;29;20233;-91
2024/03/25 07:17:34;;;;;;;0.53;0.53;;;;;;;;;;4922945;29;20210;-89
2024/03/25 07:20:01;;;;;;;0.37;0.37;;;;;;;;;;4906771;29;20229;-89
2024/03/25 07:22:27;;;;;;;0.47;0.30;;;;;;;;;;4938152;29;20615;-86
2024/03/25 07:24:55;;;;;;;0.30;0.30;;;;;;;;;;4921183;29;20264;-89
2024/03/25 07:27:21;;;;;;;0.93;0.93;;;;;;;;;;4921586;29;20214;-86
2024/03/25 07:29:47;;;;;;;0.30;0.30;;;;;;;;;;4921673;29;20210;-88
2024/03/25 07:32:14;;;;;;;0.57;0.57;;;;;;;;;;4922162;29;20206;-89
2024/03/25 07:34:40;;;;;;;0.53;0.50;;;;;;;;;;4921588;29;20210;-85
2024/03/25 07:37:06;;;;;;;1.40;0.57;;;;;;;;;;4921680;29;20202;-86
2024/03/25 07:39:32;;;;;;;0.27;0.27;;;;;;;;;;4921115;29;20245;-85
2024/03/25 07:41:59;;;;;;;0.57;0.57;;;;;;;;;;4889706;29;20201;-87
2024/03/25 07:44:25;;;;;;;1.13;0.53;;;;;;;;;;4920832;29;20242;-85
2024/03/25 07:46:51;;;;;;;1.00;0.63;;;;;;;;;;4905217;29;20295;-86
2024/03/25 07:49:18;;;;;;;0.50;0.50;;;;;;;;;;4937103;29;20624;-84
2024/03/25 07:51:44;;;;;;;0.33;0.33;;;;;;;;;;4920581;29;20645;-85
2024/03/25 07:54:14;;;;;;;0.50;0.27;;;;;;;;;;4920647;29;20206;-87
2024/03/25 07:56:40;;;;;;;2.73;0.90;;;;;;;;;;4934488;29;20224;-84
2024/03/25 07:59:06;;;;;;;0.70;0.70;;;;;;;;;;4921687;29;20230;-85
2024/03/25 08:01:32;;;;;;;0.40;0.40;;;;;;;;;;4937347;29;20199;-86
2024/03/25 08:03:58;;;;;;;1.33;0.90;;;;;;;;;;4921353;29;20206;-86
2024/03/25 08:06:24;;;;;;;0.10;0.10;;;;;;;;;;4921235;29;20265;-85
2024/03/25 08:08:50;;;;;;;0.30;0.20;;;;;;;;;;4937005;29;20305;-85
2024/03/25 08:11:16;;;;;;;0.30;0.30;;;;;;;;;;4921404;29;20210;-85
2024/03/25 08:13:43;;;;;;;0.87;0.50;;;;;;;;;;4921366;29;20202;-86
2024/03/25 08:16:09;;;;;;;0.53;0.30;;;;;;;;;;4937119;29;20285;-84
2024/03/25 08:18:35;;;;;;;0.20;0.20;;;;;;;;;;4921343;29;20206;-84
2024/03/25 08:21:02;;;;;;;0.40;0.40;;;;;;;;;;4921484;29;20199;-86
2024/03/25 08:23:28;;;;;;;1.53;0.60;;;;;;;;;;4921021;29;20309;-82
2024/03/25 08:25:54;;;;;;;0.63;0.60;;;;;;;;;;4920681;29;20206;-82
2024/03/25 08:28:20;;;;;;;0.73;0.73;;;;;;;;;;4936467;29;20202;-83
2024/03/25 08:30:47;;;;;;;1.17;0.33;;;;;;;;;;4900968;29;20214;-86
2024/03/25 08:33:13;;;;;;;0.40;0.40;;;;;;;;;;4885784;29;20215;-83
2024/03/25 08:35:39;;;;;;;9.97;1.27;;;;;;;;;;4885516;29;20245;-86
2024/03/25 08:38:05;;;;;;;10.83;0.93;;;;;;;;;;4885412;29;20203;-83
2024/03/25 08:40:31;;;;;;;0.30;0.20;;;;;;;;;;4900619;29;20693;-85
2024/03/25 08:42:57;;;;;;;2.30;1.13;;;;;;;;;;4870336;29;20293;-86
2024/03/25 08:45:23;;;;;;;2.87;0.43;;;;;;;;;;4917378;29;20210;-87
2024/03/25 08:47:50;;;;;;;3.07;1.23;;;;;;;;;;4885826;29;20209;-86
2024/03/25 08:50:16;;;;;;;0.30;0.30;;;;;;;;;;4869783;29;20582;-87
2024/03/25 08:52:42;;;;;;;0.37;0.37;;;;;;;;;;4886290;29;20685;-89
2024/03/25 08:55:12;;;;;;;3.80;0.53;;;;;;;;;;4885829;29;20205;-89
2024/03/25 08:57:41;;;;;;;1.00;0.63;;;;;;;;;;4885917;29;20209;-89
2024/03/25 09:00:11;;;;;;;2.67;1.43;;;;;;;;;;4885748;29;20234;-88
2024/03/25 09:02:40;;;;;;;0.67;0.50;;;;;;;;;;4917095;29;20569;-92
2024/03/25 09:05:08;;;;;;;0.60;0.60;;;;;;;;;;4920453;29;20217;-88
2024/03/25 09:07:34;;;;;;;3.03;1.13;;;;;;;;;;4906400;29;20241;-90
2024/03/25 09:19:21;;;;;;;1.20;1.10;;;;;;;;;;4919611;28;20210;-87
2024/03/25 09:21:47;;;;;;;1.00;0.33;;;;;;;;;;4936099;29;20269;-87
2024/03/25 09:24:13;;;;;;;1.83;0.93;;;;;;;;;;4920310;29;20245;-88
2024/03/25 09:26:39;;;;;;;3.87;0.80;;;;;;;;;;4920088;29;20228;-88
2024/03/25 09:29:06;;;;;;;0.80;0.73;;;;;;;;;;4936353;29;20261;-88
2024/03/25 09:31:34;;;;;;;0.67;0.23;;;;;;;;;;4934877;29;20221;-87
2024/03/25 09:34:00;;;;;;;1.50;0.77;;;;;;;;;;4925793;29;20246;-89
2024/03/25 09:36:26;;;;;;;2.57;1.40;;;;;;;;;;4919166;29;20317;-87
2024/03/25 09:38:53;;;;;;;2.73;1.13;;;;;;;;;;4920033;29;20561;-86
2024/03/25 09:41:19;;;;;;;3.83;0.20;;;;;;;;;;4920192;29;20209;-87
2024/03/25 09:43:51;;;;;;;5.37;1.43;;;;;;;;;;4919603;29;20273;-88
2024/03/25 09:46:17;;;;;;;1.83;0.60;;;;;;;;;;4919654;29;20237;-87
2024/03/25 09:48:44;;;;;;;0.67;0.67;;;;;;;;;;4891065;29;20325;-91
2024/03/25 09:51:10;;;;;;;0.53;0.53;;;;;;;;;;4883608;29;20242;-89
2024/03/25 09:53:36;;;;;;;0.30;0.30;;;;;;;;;;4884693;29;20221;-90
2024/03/25 09:56:03;;;;;;;4.63;1.07;;;;;;;;;;4875071;29;20238;-87
2024/03/25 09:58:29;;;;;;;0.87;0.87;;;;;;;;;;4899244;29;20344;-88
2024/03/25 10:00:56;;;;;;;7.27;2.63;;;;;;;;;;4899033;29;20242;-88
2024/03/25 10:03:22;;;;;;;1.73;0.40;;;;;;;;;;4883965;29;20317;-85
2024/03/25 10:05:54;;;;;;;5.73;1.37;;;;;;;;;;4869197;29;20714;-89
2024/03/25 10:08:30;;;;;;;0.70;0.67;;;;;;;;;;4899494;29;20725;-91
2024/03/25 10:10:56;;;;;;;0.60;0.60;;;;;;;;;;4883352;29;20320;-87
2024/03/25 10:13:22;;;;;;;0.10;0.10;;;;;;;;;;4883731;29;20234;-88
2024/03/25 10:15:49;;;;;;;0.53;0.53;;;;;;;;;;4867960;29;20244;-90
2024/03/25 10:18:15;;;;;;;1.33;0.57;;;;;;;;;;4883197;29;20758;-87
2024/03/25 10:20:53;;;;;;;3.10;1.10;;;;;;;;;;4884162;29;20330;-86
2024/03/25 10:23:24;;;;;;;0.53;0.50;;;;;;;;;;4899655;29;20363;-85
2024/03/25 10:25:52;;;;;;;4.90;0.40;;;;;;;;;;4887048;29;20238;-86
2024/03/25 10:28:18;;;;;;;0.30;0.30;;;;;;;;;;4918938;29;20716;-87
2024/03/25 10:30:45;;;;;;;6.03;0.63;;;;;;;;;;4919007;29;20237;-91
2024/03/25 10:33:15;;;;;;;1.60;1.13;;;;;;;;;;4918674;29;20237;-90
2024/03/25 10:35:41;;;;;;;3.67;0.70;;;;;;;;;;4919448;29;20246;-87
2024/03/25 10:38:10;;;;;;;1.47;0.57;;;;;;;;;;4919087;29;20698;-85
2024/03/25 10:40:40;;;;;;;0.70;0.67;;;;;;;;;;4934851;29;20234;-92
2024/03/25 10:43:06;;;;;;;4.77;0.87;;;;;;;;;;4918491;29;20237;-88
2024/03/25 10:45:37;;;;;;;0.30;0.30;;;;;;;;;;4911628;29;20233;-89
2024/03/25 10:48:13;;;;;;;2.27;1.17;;;;;;;;;;4937032;28;20261;-87
2024/03/25 10:50:40;;;;;;;1.07;0.33;;;;;;;;;;4922963;29;20212;-88
2024/03/25 10:53:08;;;;;;;0.70;0.70;;;;;;;;;;4922513;29;20264;-87
2024/03/25 10:55:35;;;;;;;5.60;0.90;;;;;;;;;;4922528;29;20238;-87
2024/03/25 10:58:02;;;;;;;3.60;1.00;;;;;;;;;;4922979;29;20253;-89
2024/03/25 11:00:29;;;;;;;1.00;0.53;;;;;;;;;;4922255;29;20238;-90
2024/03/25 11:02:56;;;;;;;1.97;1.10;;;;;;;;;;4922555;29;20702;-87
2024/03/25 11:05:22;;;;;;;0.30;0.30;;;;;;;;;;4939274;29;20210;-87
2024/03/25 11:07:48;;;;;;;0.30;0.30;;;;;;;;;;4922111;29;20249;-88
2024/03/25 11:10:16;;;;;;;2.77;0.70;;;;;;;;;;4906190;29;20242;-90
2024/03/25 11:12:42;;;;;;;0.97;0.50;;;;;;;;;;4922045;29;20241;-86
2024/03/25 11:15:09;;;;;;;0.60;0.60;;;;;;;;;;4922461;29;20347;-87
2024/03/25 11:17:36;;;;;;;1.67;1.10;;;;;;;;;;4923250;29;20229;-89
2024/03/25 11:20:16;;;;;;;2.67;0.93;;;;;;;;;;4912899;29;20246;-91
2024/03/25 11:22:51;;;;;;;1.90;0.83;;;;;;;;;;4922356;29;20243;-89
2024/03/25 11:25:18;;;;;;;1.13;0.60;;;;;;;;;;4921323;29;20257;-88
2024/03/25 11:27:45;;;;;;;0.37;0.37;;;;;;;;;;4921483;29;20324;-89
2024/03/25 11:30:14;;;;;;;1.07;0.60;;;;;;;;;;4921759;29;20682;-90
2024/03/25 11:32:53;;;;;;;5.07;1.47;;;;;;;;;;4922251;29;20674;-88
2024/03/25 11:35:20;;;;;;;2.10;2.00;;;;;;;;;;4921826;29;20238;-91
2024/03/25 11:37:46;;;;;;;1.63;0.80;;;;;;;;;;4921894;29;20562;-88
2024/03/25 11:40:14;;;;;;;0.80;0.50;;;;;;;;;;4921324;29;20234;-87
2024/03/25 11:42:43;;;;;;;1.20;0.87;;;;;;;;;;4921842;29;20332;-87
2024/03/25 11:45:20;;;;;;;5.13;2.73;;;;;;;;;;4921449;29;20297;-88
2024/03/25 11:47:49;;;;;;;3.23;1.00;;;;;;;;;;4902608;29;20261;-86
2024/03/25 11:50:19;;;;;;;2.57;1.63;;;;;;;;;;4901432;29;20241;-86
2024/03/25 11:52:46;;;;;;;0.93;0.60;;;;;;;;;;4885563;29;20708;-86
2024/03/25 11:55:16;;;;;;;1.60;1.40;;;;;;;;;;4901961;29;20241;-87
2024/03/25 11:57:43;;;;;;;2.27;0.67;;;;;;;;;;4886233;29;20242;-88
2024/03/25 12:00:14;;;;;;;2.83;0.57;;;;;;;;;;4885407;29;20238;-86
2024/03/25 12:02:46;;;;;;;8.37;0.90;;;;;;;;;;4886954;29;20639;-87
2024/03/25 12:05:15;;;;;;;0.73;0.50;;;;;;;;;;4885755;29;20810;-90
2024/03/25 12:07:41;;;;;;;8.40;0.63;;;;;;;;;;4886719;29;20246;-88
2024/03/25 12:12:52;;;;;;;2.33;0.50;;;;;;;;;;4918351;29;20235;-85
2024/03/25 12:15:18;;;;;;;1.60;0.43;;;;;;;;;;4885703;29;20248;-87
2024/03/25 12:17:45;;;;;;;0.60;0.40;;;;;;;;;;4872859;29;20674;-86
2024/03/25 12:20:12;;;;;;;0.93;0.90;;;;;;;;;;4920408;29;20695;-87
2024/03/25 12:22:38;;;;;;;1.53;0.50;;;;;;;;;;4920928;29;20234;-86
2024/03/25 12:25:06;;;;;;;0.43;0.43;;;;;;;;;;4927481;29;20705;-89
2024/03/25 12:27:32;;;;;;;0.50;0.50;;;;;;;;;;4919944;29;20229;-87
2024/03/25 12:30:18;;;;;;;3.70;1.03;;;;;;;;;;4920248;29;20221;-85
2024/03/25 12:32:45;;;;;;;2.83;1.07;;;;;;;;;;4921021;29;20202;-89
2024/03/25 12:35:12;;;;;;;3.23;0.70;;;;;;;;;;4920662;29;20690;-89
2024/03/25 12:37:38;;;;;;;1.23;0.40;;;;;;;;;;4936146;29;20719;-88
2024/03/25 12:40:06;;;;;;;0.47;0.47;;;;;;;;;;4919119;29;20237;-87
2024/03/25 12:42:33;;;;;;;3.70;1.60;;;;;;;;;;4920978;29;20244;-85
2024/03/25 12:44:59;;;;;;;18.83;0.93;;;;;;;;;;4920345;28;20218;-88
2024/03/25 12:47:25;;;;;;;3.03;1.10;;;;;;;;;;4921887;29;20253;-89
2024/03/25 12:49:51;;;;;;;4.03;0.33;;;;;;;;;;4900191;29;20294;-87
2024/03/25 12:52:18;;;;;;;0.77;0.77;;;;;;;;;;4884860;29;20234;-86
2024/03/25 12:54:44;;;;;;;1.40;0.53;;;;;;;;;;4869124;29;20258;-89
2024/03/25 12:57:10;;;;;;;0.30;0.30;;;;;;;;;;4884994;29;20245;-90
2024/03/25 12:59:36;;;;;;;0.30;0.30;;;;;;;;;;4885522;29;20715;-87
2024/03/25 13:02:02;;;;;;;7.97;1.50;;;;;;;;;;4884160;29;20238;-87
2024/03/25 13:04:29;;;;;;;2.87;0.90;;;;;;;;;;4884377;29;20734;-89
2024/03/25 13:06:55;;;;;;;1.13;0.43;;;;;;;;;;4884300;29;20241;-88
2024/03/25 13:09:21;;;;;;;4.17;0.50;;;;;;;;;;4868907;29;20245;-88
2024/03/25 13:11:47;;;;;;;0.10;0.10;;;;;;;;;;4884565;29;20291;-88
2024/03/25 13:14:15;;;;;;;9.13;1.27;;;;;;;;;;4884308;29;20304;-89
2024/03/25 13:16:41;;;;;;;0.43;0.43;;;;;;;;;;4916046;29;20235;-89
2024/03/25 13:19:08;;;;;;;0.67;0.63;;;;;;;;;;4869149;29;20249;-89
2024/03/25 13:21:34;;;;;;;4.20;0.50;;;;;;;;;;4912239;29;20240;-88
2024/03/25 13:24:00;;;;;;;0.37;0.37;;;;;;;;;;4920292;29;20214;-89
2024/03/25 13:26:27;;;;;;;1.10;0.50;;;;;;;;;;4936404;29;20233;-89
2024/03/25 13:28:54;;;;;;;2.90;1.03;;;;;;;;;;4919013;29;20324;-89
2024/03/25 13:31:20;;;;;;;0.40;0.40;;;;;;;;;;4919617;29;20285;-88
2024/03/25 13:33:46;;;;;;;1.40;0.93;;;;;;;;;;4912635;29;20234;-87
2024/03/25 13:36:15;;;;;;;0.97;0.73;;;;;;;;;;4919811;29;20249;-88
2024/03/25 13:38:41;;;;;;;1.80;0.90;;;;;;;;;;4920027;29;20749;-86
2024/03/25 13:41:07;;;;;;;3.73;0.47;;;;;;;;;;4919065;29;20242;-87
2024/03/25 13:43:33;;;;;;;4.97;0.60;;;;;;;;;;4935068;29;20237;-86
2024/03/25 13:45:59;;;;;;;0.27;0.27;;;;;;;;;;4935000;29;20229;-89
2024/03/25 13:48:25;;;;;;;0.20;0.20;;;;;;;;;;4919365;29;20325;-86
2024/03/25 13:50:54;;;;;;;4.47;0.57;;;;;;;;;;4919132;29;20210;-87
2024/03/25 13:53:21;;;;;;;0.30;0.30;;;;;;;;;;4920102;29;20301;-87
2024/03/25 13:55:47;;;;;;;0.30;0.30;;;;;;;;;;4918953;29;20651;-89
2024/03/25 13:58:13;;;;;;;1.10;1.03;;;;;;;;;;4918802;29;20678;-90
2024/03/25 14:00:40;;;;;;;0.40;0.40;;;;;;;;;;4918927;29;20256;-86
2024/03/25 14:03:06;;;;;;;4.70;1.43;;;;;;;;;;4904111;29;20206;-86
2024/03/25 14:05:32;;;;;;;2.23;1.03;;;;;;;;;;4919160;29;20264;-89
2024/03/25 14:07:58;;;;;;;5.37;1.00;;;;;;;;;;4919393;29;20720;-88
2024/03/25 14:10:24;;;;;;;1.83;1.27;;;;;;;;;;4910792;29;20240;-87
2024/03/25 14:12:50;;;;;;;4.43;0.33;;;;;;;;;;4935376;29;20269;-88
2024/03/25 14:15:16;;;;;;;0.50;0.50;;;;;;;;;;4919108;29;20252;-89
2024/03/25 14:17:43;;;;;;;4.70;1.53;;;;;;;;;;4919915;29;20212;-89
2024/03/25 14:20:09;;;;;;;2.90;0.57;;;;;;;;;;4919172;29;20238;-88
2024/03/25 14:22:35;;;;;;;0.50;0.50;;;;;;;;;;4937011;29;20240;-88
2024/03/25 14:25:02;;;;;;;0.30;0.30;;;;;;;;;;4925474;29;20272;-88
2024/03/25 14:27:28;;;;;;;7.47;0.70;;;;;;;;;;4925416;29;20239;-87
2024/03/25 14:29:54;;;;;;;0.87;0.73;;;;;;;;;;4924867;29;20210;-87
2024/03/25 14:32:20;;;;;;;1.63;0.40;;;;;;;;;;4925841;29;20252;-88
2024/03/25 14:34:47;;;;;;;5.90;0.70;;;;;;;;;;4940988;29;20237;-87
2024/03/25 14:37:14;;;;;;;0.47;0.47;;;;;;;;;;4925073;29;20233;-86
2024/03/25 14:39:40;;;;;;;0.40;0.40;;;;;;;;;;4925198;29;20237;-88
2024/03/25 14:42:08;;;;;;;1.60;0.50;;;;;;;;;;4925327;29;20201;-87
2024/03/25 14:44:35;;;;;;;3.47;1.03;;;;;;;;;;4925243;29;20658;-86
2024/03/25 14:47:02;;;;;;;2.10;0.50;;;;;;;;;;4924474;29;20381;-86
2024/03/25 14:49:28;;;;;;;0.50;0.50;;;;;;;;;;4924921;29;20292;-86
2024/03/25 14:51:54;;;;;;;4.97;0.50;;;;;;;;;;4925234;29;20237;-87
2024/03/25 14:54:20;;;;;;;1.63;0.90;;;;;;;;;;4926062;29;20237;-89
2024/03/25 14:56:49;;;;;;;1.30;0.53;;;;;;;;;;4928127;29;20205;-87
2024/03/25 14:59:15;;;;;;;1.27;1.17;;;;;;;;;;4944145;29;20234;-85